createdAt,value
2022-09-06T00:00:42.705Z,4.00
2022-09-06T00:01:44.302Z,4.15
2022-09-06T00:02:46.034Z,3.78
2022-09-06T00:03:47.941Z,3.92
2022-09-06T00:04:49.445Z,5.45
2022-09-06T00:05:52.236Z,5.80
2022-09-06T00:06:53.661Z,4.43
2022-09-06T00:07:57.917Z,5.57
2022-09-06T00:08:59.454Z,3.13
2022-09-06T00:10:01.092Z,3.53
2022-09-06T00:11:02.619Z,3.33
2022-09-06T00:12:04.205Z,3.45
2022-09-06T00:13:08.309Z,4.65
2022-09-06T00:14:09.735Z,3.85
2022-09-06T00:15:11.426Z,5.35
2022-09-06T00:16:16.183Z,3.10
2022-09-06T00:17:18.162Z,5.45
2022-09-06T00:18:19.651Z,4.50
2022-09-06T00:19:21.099Z,3.45
2022-09-06T00:20:22.535Z,4.50
2022-09-06T00:21:27.213Z,5.35
2022-09-06T00:22:28.701Z,5.82
2022-09-06T00:23:30.179Z,3.72
2022-09-06T00:24:31.621Z,3.50
2022-09-06T00:25:34.228Z,5.45
2022-09-06T00:26:35.860Z,4.53
2022-09-06T00:27:37.317Z,5.57
2022-09-06T00:28:39.268Z,5.22
2022-09-06T00:29:40.747Z,4.80
2022-09-06T00:30:42.259Z,4.80
2022-09-06T00:31:43.724Z,5.03
2022-09-06T00:32:45.222Z,3.85
2022-09-06T00:33:46.762Z,3.80
2022-09-06T00:34:48.214Z,5.20
2022-09-06T00:35:49.781Z,4.10
2022-09-06T00:36:52.729Z,5.10
2022-09-06T00:37:57.339Z,5.07
2022-09-06T00:38:58.811Z,5.90
2022-09-06T00:40:00.360Z,3.50
2022-09-06T00:41:02.040Z,3.65
2022-09-06T00:42:08.031Z,4.95
2022-09-06T00:43:09.518Z,3.97
2022-09-06T00:44:11.286Z,4.20
2022-09-06T00:45:13.642Z,3.85
2022-09-06T00:46:18.813Z,7.80
2022-09-06T00:47:20.595Z,5.10
2022-09-06T00:48:23.125Z,7.72
2022-09-06T00:49:30.160Z,7.63
2022-09-06T00:50:31.747Z,7.95
2022-09-06T00:51:35.316Z,4.95
2022-09-06T00:52:40.076Z,5.20
2022-09-06T00:53:41.773Z,4.90
2022-09-06T00:54:43.649Z,6.60
2022-09-06T00:55:45.487Z,7.55
2022-09-06T00:56:47.156Z,4.15
2022-09-06T00:57:49.439Z,6.85
2022-09-06T00:58:50.920Z,4.95
2022-09-06T00:59:54.126Z,5.45
2022-09-06T01:00:55.957Z,5.57
2022-09-06T01:01:57.518Z,3.88
2022-09-06T01:02:59.032Z,5.03
2022-09-06T01:04:02.461Z,8.10
2022-09-06T01:05:05.536Z,5.45
2022-09-06T01:06:22.152Z,6.07
2022-09-06T01:07:38.099Z,4.13
2022-09-06T01:08:52.568Z,5.63
2022-09-06T01:10:08.072Z,4.57
2022-09-06T01:11:36.196Z,3.85
2022-09-06T01:12:44.743Z,6.03
2022-09-06T01:13:55.716Z,4.88
2022-09-06T01:15:08.405Z,7.68
2022-09-06T01:16:13.823Z,7.65
2022-09-06T01:17:37.321Z,6.45
2022-09-06T01:18:57.303Z,5.95
2022-09-06T01:20:23.451Z,4.93
2022-09-06T01:21:37.839Z,5.20
2022-09-06T01:23:06.605Z,4.10
2022-09-06T01:24:39.976Z,4.90
2022-09-06T01:25:57.663Z,5.93
2022-09-06T01:27:40.451Z,4.07
2022-09-06T01:28:43.729Z,5.13
2022-09-06T01:29:50.003Z,4.97
2022-09-06T01:30:57.642Z,7.18
2022-09-06T01:32:09.619Z,6.07
2022-09-06T01:33:21.608Z,8.10
2022-09-06T01:34:28.803Z,4.97
2022-09-06T01:35:36.254Z,3.55
2022-09-06T01:37:06.142Z,4.57
2022-09-06T01:38:07.725Z,4.00
2022-09-06T01:39:14.280Z,4.93
2022-09-06T01:40:16.007Z,5.30
2022-09-06T01:41:17.470Z,4.75
2022-09-06T01:42:22.829Z,3.95
2022-09-06T01:43:28.340Z,6.75
2022-09-06T01:44:30.647Z,8.13
2022-09-06T01:45:41.839Z,4.10
2022-09-06T01:46:52.360Z,5.57
2022-09-06T01:48:03.377Z,5.32
2022-09-06T01:49:24.835Z,7.63
2022-09-06T01:50:42.924Z,4.55
2022-09-06T01:51:57.064Z,4.93
2022-09-06T01:53:10.803Z,7.05
2022-09-06T01:54:26.160Z,5.28
2022-09-06T01:55:32.442Z,6.45
2022-09-06T01:56:43.256Z,6.75
2022-09-06T01:58:05.608Z,6.13
2022-09-06T01:59:41.448Z,5.88
2022-09-06T02:00:51.659Z,8.68
2022-09-06T02:02:02.253Z,6.95
2022-09-06T02:03:10.993Z,7.68
2022-09-06T02:04:20.200Z,6.25
2022-09-06T02:05:27.710Z,6.55
2022-09-06T02:06:32.979Z,6.55
2022-09-06T02:07:36.948Z,5.28
2022-09-06T02:08:42.217Z,7.25
2022-09-06T02:09:49.477Z,7.28
2022-09-06T02:10:56.308Z,7.13
2022-09-06T02:12:00.066Z,6.70
2022-09-06T02:13:04.392Z,6.65
2022-09-06T02:14:11.054Z,8.82
2022-09-06T02:15:19.598Z,6.45
2022-09-06T02:16:25.456Z,6.18
2022-09-06T02:17:31.995Z,6.97
2022-09-06T02:18:38.108Z,7.05
2022-09-06T02:19:46.558Z,7.90
2022-09-06T02:20:52.024Z,9.85
2022-09-06T02:21:56.957Z,7.10
2022-09-06T02:23:04.031Z,8.85
2022-09-06T02:24:09.125Z,8.98
2022-09-06T02:25:15.605Z,6.88
2022-09-06T02:26:21.216Z,6.60
2022-09-06T02:27:22.797Z,7.47
2022-09-06T02:28:24.655Z,9.68
2022-09-06T02:29:26.733Z,11.27
2022-09-06T02:30:29.968Z,9.27
2022-09-06T02:31:34.886Z,10.60
2022-09-06T02:32:41.673Z,7.35
2022-09-06T02:33:45.559Z,8.43
2022-09-06T02:34:48.508Z,8.70
2022-09-06T02:35:52.538Z,8.52
2022-09-06T02:36:55.007Z,6.80
2022-09-06T02:37:56.525Z,8.70
2022-09-06T02:38:59.896Z,6.45
2022-09-06T02:40:01.508Z,10.02
2022-09-06T02:41:04.583Z,9.52
2022-09-06T02:42:06.572Z,8.10
2022-09-06T02:43:08.508Z,9.32
2022-09-06T02:44:10.018Z,7.35
2022-09-06T02:45:11.486Z,9.65
2022-09-06T02:46:14.469Z,10.73
2022-09-06T02:47:16.164Z,8.00
2022-09-06T02:48:17.653Z,8.48
2022-09-06T02:49:19.147Z,8.10
2022-09-06T02:50:20.592Z,7.93
2022-09-06T02:51:22.045Z,7.55
2022-09-06T02:52:23.559Z,8.88
2022-09-06T02:53:25.019Z,8.38
2022-09-06T02:54:26.535Z,8.82
2022-09-06T02:55:28.011Z,9.75
2022-09-06T02:56:29.516Z,11.50
2022-09-06T02:57:30.993Z,9.20
2022-09-06T02:58:32.478Z,7.72
2022-09-06T02:59:33.962Z,9.35
2022-09-06T03:00:35.934Z,19.83
2022-09-06T03:01:38.804Z,46.70
2022-09-06T03:02:40.464Z,53.90
2022-09-06T03:03:42.092Z,67.72
2022-09-06T03:04:43.575Z,74.30
2022-09-06T03:05:47.000Z,30.10
2022-09-06T03:06:48.507Z,18.05
2022-09-06T03:07:50.540Z,13.32
2022-09-06T03:08:52.032Z,22.08
2022-09-06T03:09:53.517Z,10.95
2022-09-06T03:10:56.608Z,14.27
2022-09-06T03:11:58.138Z,11.23
2022-09-06T03:12:59.639Z,13.38
2022-09-06T03:14:01.136Z,10.75
2022-09-06T03:15:02.936Z,10.18
2022-09-06T03:16:04.498Z,10.00
2022-09-06T03:17:07.328Z,11.45
2022-09-06T03:18:08.803Z,8.80
2022-09-06T03:19:10.311Z,11.60
2022-09-06T03:20:12.035Z,14.02
2022-09-06T03:21:13.590Z,10.18
2022-09-06T03:22:15.213Z,8.60
2022-09-06T03:23:16.794Z,11.88
2022-09-06T03:24:18.276Z,9.77
2022-09-06T03:25:19.794Z,10.02
2022-09-06T03:26:21.377Z,9.38
2022-09-06T03:27:23.131Z,10.88
2022-09-06T03:28:24.895Z,11.20
2022-09-06T03:29:26.384Z,10.20
2022-09-06T03:30:28.044Z,9.27
2022-09-06T03:31:29.631Z,12.07
2022-09-06T03:32:32.536Z,8.85
2022-09-06T03:33:34.009Z,11.57
2022-09-06T03:34:35.480Z,9.55
2022-09-06T03:35:37.021Z,10.35
2022-09-06T03:36:38.519Z,12.07
2022-09-06T03:37:39.985Z,11.05
2022-09-06T03:38:41.502Z,9.07
2022-09-06T03:39:43.026Z,10.38
2022-09-06T03:40:45.788Z,9.10
2022-09-06T03:41:47.268Z,9.75
2022-09-06T03:42:48.759Z,8.63
2022-09-06T03:43:50.267Z,9.38
2022-09-06T03:44:51.824Z,9.70
2022-09-06T03:45:55.064Z,9.30
2022-09-06T03:46:56.578Z,10.00
2022-09-06T03:47:59.399Z,8.23
2022-09-06T03:49:00.917Z,8.15
2022-09-06T03:50:02.434Z,7.13
2022-09-06T03:51:04.048Z,8.10
2022-09-06T03:52:05.616Z,7.05
2022-09-06T03:53:07.073Z,7.00
2022-09-06T03:54:08.694Z,6.82
2022-09-06T03:55:10.273Z,8.23
2022-09-06T03:56:11.872Z,8.38
2022-09-06T03:57:13.326Z,10.05
2022-09-06T03:58:15.965Z,8.90
2022-09-06T03:59:17.448Z,8.90
2022-09-06T04:00:19.127Z,7.93
2022-09-06T04:01:20.819Z,4.03
2022-09-06T04:02:22.382Z,4.60
2022-09-06T04:03:25.219Z,5.80
2022-09-06T04:04:26.760Z,7.43
2022-09-06T04:05:28.264Z,7.55
2022-09-06T04:06:29.747Z,5.35
2022-09-06T04:07:31.258Z,7.38
2022-09-06T04:08:33.480Z,6.65
2022-09-06T04:09:34.983Z,7.15
2022-09-06T04:10:36.536Z,6.25
2022-09-06T04:11:38.026Z,5.20
2022-09-06T04:12:39.485Z,8.48
2022-09-06T04:13:40.957Z,6.68
2022-09-06T04:14:42.477Z,3.80
2022-09-06T04:15:45.562Z,5.82
2022-09-06T04:16:47.093Z,4.55
2022-09-06T04:17:48.645Z,6.00
2022-09-06T04:18:51.447Z,5.65
2022-09-06T04:19:52.931Z,7.43
2022-09-06T04:20:55.272Z,5.28
2022-09-06T04:21:56.977Z,3.47
2022-09-06T04:22:58.419Z,5.30
2022-09-06T04:23:59.871Z,5.28
2022-09-06T04:25:01.333Z,6.45
2022-09-06T04:26:02.819Z,6.03
2022-09-06T04:27:04.787Z,5.32
2022-09-06T04:28:06.257Z,6.75
2022-09-06T04:29:07.838Z,5.30
2022-09-06T04:30:10.146Z,9.43
2022-09-06T04:31:11.632Z,4.05
2022-09-06T04:32:13.229Z,5.32
2022-09-06T04:33:14.749Z,6.65
2022-09-06T04:34:17.613Z,9.07
2022-09-06T04:35:19.168Z,4.32
2022-09-06T04:36:20.662Z,7.22
2022-09-06T04:37:22.157Z,5.45
2022-09-06T04:38:23.741Z,5.75
2022-09-06T04:39:25.347Z,5.50
2022-09-06T04:40:26.830Z,5.55
2022-09-06T04:41:28.297Z,5.10
2022-09-06T04:42:29.803Z,6.03
2022-09-06T04:43:31.611Z,5.65
2022-09-06T04:44:33.106Z,4.65
2022-09-06T04:45:34.612Z,6.90
2022-09-06T04:46:36.173Z,5.28
2022-09-06T04:47:37.861Z,4.45
2022-09-06T04:48:39.313Z,5.25
2022-09-06T04:49:42.803Z,4.70
2022-09-06T04:50:44.376Z,6.72
2022-09-06T04:51:45.821Z,4.65
2022-09-06T04:52:47.293Z,5.00
2022-09-06T04:53:49.009Z,5.82
2022-09-06T04:54:50.510Z,4.68
2022-09-06T04:55:52.094Z,5.10
2022-09-06T04:56:53.587Z,8.07
2022-09-06T04:57:55.091Z,14.30
2022-09-06T04:58:56.629Z,16.10
2022-09-06T04:59:58.124Z,10.82
2022-09-06T05:00:59.672Z,9.05
2022-09-06T05:02:01.368Z,9.13
2022-09-06T05:03:02.906Z,7.22
2022-09-06T05:04:04.433Z,10.85
2022-09-06T05:05:07.989Z,9.15
2022-09-06T05:07:36.938Z,7.65
2022-09-06T05:08:38.492Z,8.00
2022-09-06T05:11:05.918Z,9.57
2022-09-06T05:12:07.483Z,11.15
2022-09-06T05:13:08.980Z,11.18
2022-09-06T05:14:10.437Z,8.40
2022-09-06T05:15:12.048Z,8.85
2022-09-06T05:16:14.025Z,10.90
2022-09-06T05:17:15.539Z,6.85
2022-09-06T05:18:17.064Z,7.57
2022-09-06T05:19:18.568Z,8.60
2022-09-06T05:20:21.395Z,7.55
2022-09-06T05:21:22.940Z,8.25
2022-09-06T05:22:24.505Z,7.07
2022-09-06T05:23:26.745Z,9.77
2022-09-06T05:24:28.217Z,10.20
2022-09-06T05:25:29.683Z,8.93
2022-09-06T05:26:31.237Z,7.28
2022-09-06T05:27:32.698Z,8.98
2022-09-06T05:28:34.591Z,7.50
2022-09-06T05:29:36.053Z,9.88
2022-09-06T05:30:37.535Z,9.65
2022-09-06T05:31:39.329Z,6.90
2022-09-06T05:32:40.942Z,7.60
2022-09-06T05:34:44.091Z,8.50
2022-09-06T05:35:47.079Z,9.60
2022-09-06T05:36:48.571Z,9.27
2022-09-06T05:37:50.044Z,7.93
2022-09-06T05:38:51.915Z,8.10
2022-09-06T05:39:53.460Z,10.00
2022-09-06T05:40:54.988Z,7.35
2022-09-06T05:41:56.490Z,7.97
2022-09-06T05:42:57.968Z,8.38
2022-09-06T05:43:59.428Z,9.07
2022-09-06T05:45:00.890Z,8.70
2022-09-06T05:46:02.490Z,6.82
2022-09-06T05:47:04.720Z,10.32
2022-09-06T05:48:06.225Z,11.07
2022-09-06T05:49:07.823Z,9.18
2022-09-06T05:50:10.259Z,8.55
2022-09-06T05:51:13.367Z,8.52
2022-09-06T05:52:14.865Z,9.18
2022-09-06T05:53:16.317Z,7.05
2022-09-06T05:54:17.934Z,8.73
2022-09-06T05:55:19.387Z,10.35
2022-09-06T05:56:20.855Z,7.90
2022-09-06T05:57:22.507Z,7.10
2022-09-06T05:58:23.980Z,9.93
2022-09-06T05:59:25.480Z,10.75
2022-09-06T06:00:26.947Z,9.55
2022-09-06T06:01:31.156Z,10.35
2022-09-06T06:02:32.734Z,12.25
2022-09-06T06:03:34.306Z,10.88
2022-09-06T06:04:36.058Z,8.15
2022-09-06T06:05:37.516Z,10.73
2022-09-06T06:06:40.324Z,8.40
2022-09-06T06:07:42.382Z,11.25
2022-09-06T06:08:43.831Z,8.50
2022-09-06T06:09:45.357Z,7.82
2022-09-06T06:10:46.817Z,8.40
2022-09-06T06:11:48.309Z,10.68
2022-09-06T06:12:49.790Z,8.15
2022-09-06T06:13:51.908Z,10.95
2022-09-06T06:14:53.447Z,8.45
2022-09-06T06:15:54.978Z,7.93
2022-09-06T06:16:56.504Z,7.80
2022-09-06T06:17:58.168Z,7.68
2022-09-06T06:18:59.690Z,10.93
2022-09-06T06:20:01.428Z,9.73
2022-09-06T06:21:11.045Z,9.82
2022-09-06T06:22:13.881Z,8.65
2022-09-06T06:23:16.019Z,12.48
2022-09-06T06:24:17.517Z,9.32
2022-09-06T06:25:18.960Z,8.20
2022-09-06T06:26:20.503Z,8.93
2022-09-06T06:27:21.974Z,9.18
2022-09-06T06:28:23.500Z,9.23
2022-09-06T06:29:25.083Z,8.73
2022-09-06T06:30:26.564Z,9.48
2022-09-06T06:31:28.570Z,7.97
2022-09-06T06:32:30.066Z,7.72
2022-09-06T06:33:31.701Z,8.57
2022-09-06T06:34:33.205Z,10.10
2022-09-06T06:35:38.297Z,7.88
2022-09-06T06:36:41.541Z,9.63
2022-09-06T06:37:44.393Z,6.20
2022-09-06T06:38:46.464Z,6.85
2022-09-06T06:39:47.985Z,8.10
2022-09-06T06:40:49.580Z,8.00
2022-09-06T06:41:51.045Z,6.90
2022-09-06T06:42:52.563Z,7.13
2022-09-06T06:43:54.878Z,9.50
2022-09-06T06:44:56.351Z,7.63
2022-09-06T06:45:57.916Z,6.63
2022-09-06T06:46:59.433Z,7.07
2022-09-06T06:48:00.905Z,6.63
2022-09-06T06:49:02.540Z,6.65
2022-09-06T06:51:06.531Z,7.63
2022-09-06T06:52:08.023Z,8.00
2022-09-06T06:53:10.832Z,8.88
2022-09-06T06:54:12.291Z,9.38
2022-09-06T06:55:13.926Z,6.68
2022-09-06T06:56:17.420Z,5.47
2022-09-06T06:57:18.929Z,6.18
2022-09-06T06:58:20.768Z,6.63
2022-09-06T06:59:22.315Z,8.18
2022-09-06T07:00:28.051Z,6.13
2022-09-06T07:01:31.659Z,7.93
2022-09-06T07:02:33.232Z,6.85
2022-09-06T07:03:34.691Z,9.27
2022-09-06T07:04:36.186Z,8.45
2022-09-06T07:08:23.670Z,5.82
2022-09-06T07:09:25.276Z,7.22
2022-09-06T07:10:34.246Z,7.22
2022-09-06T07:11:36.015Z,9.82
2022-09-06T07:12:37.505Z,8.35
2022-09-06T07:13:39.268Z,12.63
2022-09-06T07:14:40.721Z,7.85
2022-09-06T07:15:42.209Z,6.40
2022-09-06T07:16:44.396Z,8.35
2022-09-06T07:17:46.061Z,7.18
2022-09-06T07:18:50.940Z,8.75
2022-09-06T07:22:37.253Z,7.15
2022-09-06T07:25:01.970Z,5.50
2022-09-06T07:26:03.551Z,7.03
2022-09-06T07:28:26.479Z,5.10
2022-09-06T07:29:28.007Z,7.85
2022-09-06T07:30:31.072Z,8.00
2022-09-06T07:32:54.967Z,7.90
2022-09-06T07:33:56.439Z,4.88
2022-09-06T07:34:57.923Z,5.60
2022-09-06T07:36:01.128Z,6.05
2022-09-06T07:37:02.581Z,5.95
2022-09-06T07:38:04.051Z,8.68
2022-09-06T07:39:06.887Z,9.18
2022-09-06T07:40:09.944Z,11.52
2022-09-06T07:41:11.464Z,5.70
2022-09-06T07:42:13.203Z,5.57
2022-09-06T07:43:15.114Z,6.22
2022-09-06T07:44:16.587Z,7.55
2022-09-06T07:45:18.075Z,6.53
2022-09-06T07:46:20.267Z,6.07
2022-09-06T07:48:45.060Z,4.50
2022-09-06T07:51:09.601Z,6.35
2022-09-06T07:53:33.197Z,5.32
2022-09-06T07:54:36.184Z,7.32
2022-09-06T07:55:37.683Z,6.90
2022-09-06T07:56:39.337Z,6.00
2022-09-06T07:57:40.817Z,7.50
2022-09-06T07:58:42.320Z,6.43
2022-09-06T07:59:43.786Z,5.45
2022-09-06T08:00:45.288Z,8.95
2022-09-06T08:01:46.831Z,7.15
2022-09-06T08:02:48.333Z,7.75
2022-09-06T08:03:49.795Z,7.03
2022-09-06T08:04:51.774Z,10.23
2022-09-06T08:06:09.051Z,5.25
2022-09-06T08:09:55.406Z,4.90
2022-09-06T08:10:56.873Z,8.20
2022-09-06T08:11:58.807Z,5.85
2022-09-06T08:13:00.286Z,8.20
2022-09-06T08:14:03.447Z,8.75
2022-09-06T08:15:05.791Z,11.80
2022-09-06T08:16:09.400Z,7.03
2022-09-06T08:17:10.925Z,8.68
2022-09-06T08:18:12.413Z,9.82
2022-09-06T08:19:13.971Z,7.30
2022-09-06T08:20:15.857Z,8.70
2022-09-06T08:21:17.516Z,6.93
2022-09-06T08:22:18.988Z,4.55
2022-09-06T08:23:20.609Z,6.72
2022-09-06T08:24:22.125Z,6.90
2022-09-06T08:25:24.956Z,4.60
2022-09-06T08:26:27.694Z,7.68
2022-09-06T08:27:29.150Z,6.63
2022-09-06T08:28:30.753Z,8.02
2022-09-06T08:29:32.257Z,7.00
2022-09-06T08:30:33.764Z,8.40
2022-09-06T08:31:37.076Z,6.03
2022-09-06T08:32:38.560Z,6.60
2022-09-06T08:33:40.853Z,7.63
2022-09-06T08:34:42.466Z,10.20
2022-09-06T08:35:43.967Z,5.95
2022-09-06T08:36:45.474Z,8.65
2022-09-06T08:37:46.933Z,7.35
2022-09-06T08:38:48.431Z,7.75
2022-09-06T08:39:49.977Z,7.20
2022-09-06T08:40:54.526Z,6.95
2022-09-06T08:42:00.422Z,5.22
2022-09-06T08:43:01.890Z,9.15
2022-09-06T08:45:27.601Z,6.60
2022-09-06T08:46:33.929Z,5.95
2022-09-06T08:47:35.755Z,5.47
2022-09-06T08:48:37.757Z,7.93
2022-09-06T08:49:42.638Z,6.15
2022-09-06T08:50:54.478Z,7.90
2022-09-06T08:52:08.297Z,7.25
2022-09-06T08:53:17.518Z,8.43
2022-09-06T08:54:27.668Z,4.57
2022-09-06T08:55:35.354Z,6.57
2022-09-06T08:56:56.755Z,6.00
2022-09-06T08:58:14.537Z,4.70
2022-09-06T08:59:16.020Z,5.35
2022-09-06T09:00:19.656Z,4.95
2022-09-06T09:01:27.271Z,7.38
2022-09-06T09:02:41.476Z,4.40
2022-09-06T09:03:43.663Z,8.00
2022-09-06T09:04:49.214Z,4.20
2022-09-06T09:05:53.523Z,6.25
2022-09-06T09:06:59.862Z,5.47
2022-09-06T09:08:07.904Z,7.90
2022-09-06T09:09:14.566Z,5.53
2022-09-06T09:10:22.796Z,5.90
2022-09-06T09:11:25.091Z,6.50
2022-09-06T09:12:32.211Z,7.15
2022-09-06T09:13:35.939Z,7.65
2022-09-06T09:14:40.223Z,6.55
2022-09-06T09:15:41.713Z,6.78
2022-09-06T09:16:43.947Z,4.60
2022-09-06T09:17:46.763Z,3.08
2022-09-06T09:18:52.196Z,4.70
2022-09-06T09:19:54.309Z,6.05
2022-09-06T09:20:57.337Z,5.53
2022-09-06T09:21:59.110Z,6.93
2022-09-06T09:23:01.612Z,6.80
2022-09-06T09:24:06.009Z,5.60
2022-09-06T09:25:12.801Z,5.03
2022-09-06T09:26:15.324Z,4.90
2022-09-06T09:27:19.964Z,6.30
2022-09-06T09:28:24.092Z,6.53
2022-09-06T09:29:29.515Z,5.28
2022-09-06T09:31:54.422Z,5.28
2022-09-06T09:32:57.008Z,6.05
2022-09-06T09:33:58.587Z,6.72
2022-09-06T09:35:26.840Z,5.45
2022-09-06T09:36:28.337Z,5.72
2022-09-06T09:38:47.508Z,10.27
2022-09-06T09:39:51.247Z,7.57
2022-09-06T09:40:54.831Z,6.90
2022-09-06T09:41:56.381Z,6.93
2022-09-06T09:43:13.477Z,4.68
2022-09-06T09:44:19.463Z,5.90
2022-09-06T09:45:27.230Z,7.15
2022-09-06T09:46:31.033Z,7.55
2022-09-06T09:47:33.973Z,6.25
2022-09-06T09:48:36.441Z,6.85
2022-09-06T09:49:37.913Z,5.40
2022-09-06T09:50:39.418Z,7.38
2022-09-06T09:51:42.622Z,7.32
2022-09-06T09:52:44.653Z,7.32
2022-09-06T09:53:54.095Z,8.93
2022-09-06T09:54:57.751Z,6.55
2022-09-06T09:55:59.573Z,8.68
2022-09-06T09:57:01.033Z,5.57
2022-09-06T09:58:03.100Z,7.50
2022-09-06T09:59:15.930Z,6.00
2022-09-06T10:00:35.524Z,4.32
2022-09-06T10:01:38.621Z,8.20
2022-09-06T10:02:41.958Z,6.28
2022-09-06T10:05:15.639Z,5.63
2022-09-06T10:07:49.813Z,4.47
2022-09-06T10:08:51.269Z,6.60
2022-09-06T10:09:58.823Z,7.82
2022-09-06T10:11:00.343Z,5.68
2022-09-06T10:12:02.093Z,4.35
2022-09-06T10:13:08.012Z,7.22
2022-09-06T10:14:25.206Z,7.78
2022-09-06T10:15:36.489Z,6.63
2022-09-06T10:17:49.014Z,7.60
2022-09-06T10:18:50.497Z,6.25
2022-09-06T10:19:52.407Z,7.15
2022-09-06T10:20:57.593Z,6.80
2022-09-06T10:22:08.533Z,6.10
2022-09-06T10:23:16.666Z,6.38
2022-09-06T10:24:28.320Z,5.55
2022-09-06T10:25:46.355Z,6.13
2022-09-06T10:26:53.128Z,5.55
2022-09-06T10:28:20.792Z,7.55
2022-09-06T10:29:30.905Z,4.97
2022-09-06T10:30:40.220Z,9.63
2022-09-06T10:32:10.329Z,8.40
2022-09-06T10:33:26.216Z,8.73
2022-09-06T10:34:52.882Z,5.18
2022-09-06T10:35:58.080Z,13.93
2022-09-06T10:37:10.512Z,9.10
2022-09-06T10:38:25.913Z,5.93
2022-09-06T10:39:39.728Z,8.75
2022-09-06T10:40:51.991Z,13.52
2022-09-06T10:42:05.305Z,12.18
2022-09-06T10:43:10.055Z,8.80
2022-09-06T10:44:23.973Z,9.05
2022-09-06T10:45:41.373Z,13.45
2022-09-06T10:46:45.288Z,9.05
2022-09-06T10:47:56.208Z,8.25
2022-09-06T10:48:57.881Z,9.02
2022-09-06T10:50:02.802Z,8.15
2022-09-06T10:51:12.068Z,9.77
2022-09-06T10:52:20.140Z,11.70
2022-09-06T10:53:34.748Z,7.75
2022-09-06T10:54:40.549Z,11.55
2022-09-06T10:55:48.041Z,7.72
2022-09-06T10:56:55.503Z,11.35
2022-09-06T10:58:18.295Z,8.50
2022-09-06T10:59:41.416Z,6.95
2022-09-06T11:00:46.937Z,9.23
2022-09-06T11:02:01.643Z,12.05
2022-09-06T11:06:02.936Z,9.43
2022-09-06T11:07:11.079Z,5.88
2022-09-06T11:09:47.116Z,9.65
2022-09-06T11:10:50.846Z,6.47
2022-09-06T11:12:01.842Z,11.45
2022-09-06T11:13:09.496Z,6.90
2022-09-06T11:14:13.837Z,5.22
2022-09-06T11:15:17.838Z,12.10
2022-09-06T11:16:24.558Z,7.72
2022-09-06T11:17:35.505Z,7.03
2022-09-06T11:18:41.756Z,12.23
2022-09-06T11:19:48.752Z,7.93
2022-09-06T11:21:08.432Z,6.00
2022-09-06T11:22:32.739Z,7.75
2022-09-06T11:23:46.352Z,7.68
2022-09-06T11:25:08.217Z,9.18
2022-09-06T11:26:27.514Z,9.70
2022-09-06T11:27:36.329Z,8.23
2022-09-06T11:28:42.693Z,6.57
2022-09-06T11:29:47.672Z,7.07
2022-09-06T11:30:54.828Z,8.50
2022-09-06T11:33:24.618Z,9.82
2022-09-06T11:34:28.513Z,6.00
2022-09-06T11:35:32.710Z,8.38
2022-09-06T11:36:37.319Z,7.85
2022-09-06T11:37:42.338Z,9.05
2022-09-06T11:38:54.294Z,8.80
2022-09-06T11:40:31.852Z,16.75
2022-09-06T11:41:36.743Z,8.57
2022-09-06T11:42:40.797Z,5.25
2022-09-06T11:43:45.697Z,8.00
2022-09-06T11:45:12.871Z,9.48
2022-09-06T11:46:47.748Z,6.70
2022-09-06T11:47:51.775Z,7.80
2022-09-06T11:49:02.798Z,9.38
2022-09-06T11:50:23.560Z,10.68
2022-09-06T11:51:36.694Z,6.70
2022-09-06T11:52:59.996Z,10.02
2022-09-06T11:54:17.283Z,14.77
2022-09-06T11:55:22.719Z,11.10
2022-09-06T11:56:30.400Z,10.32
2022-09-06T11:57:32.464Z,6.82
2022-09-06T11:58:45.812Z,6.55
2022-09-06T11:59:58.551Z,7.35
2022-09-06T12:01:35.752Z,7.90
2022-09-06T12:02:38.762Z,8.77
2022-09-06T12:04:05.679Z,11.60
2022-09-06T12:05:30.370Z,11.05
2022-09-06T12:06:33.950Z,7.95
2022-09-06T12:07:36.675Z,5.88
2022-09-06T12:08:38.215Z,6.60
2022-09-06T12:09:41.980Z,11.98
2022-09-06T12:10:56.629Z,9.27
2022-09-06T12:11:59.327Z,9.25
2022-09-06T12:13:00.918Z,8.90
2022-09-06T12:14:05.670Z,5.50
2022-09-06T12:15:26.761Z,9.00
2022-09-06T12:17:12.949Z,7.30
2022-09-06T12:18:56.082Z,9.55
2022-09-06T12:20:01.346Z,12.32
2022-09-06T12:21:03.941Z,9.68
2022-09-06T12:23:01.703Z,12.18
2022-09-06T12:24:05.287Z,9.48
2022-09-06T12:25:18.571Z,11.25
2022-09-06T12:26:44.533Z,7.88
2022-09-06T12:27:54.993Z,11.57
2022-09-06T12:28:57.711Z,8.93
2022-09-06T12:30:01.431Z,11.85
2022-09-06T12:31:33.777Z,11.13
2022-09-06T12:32:38.015Z,8.98
2022-09-06T12:33:39.993Z,6.05
2022-09-06T12:34:45.509Z,10.95
2022-09-06T12:35:56.431Z,5.93
2022-09-06T12:38:03.741Z,10.68
2022-09-06T12:39:09.899Z,11.13
2022-09-06T12:40:11.669Z,10.63
2022-09-06T12:41:13.277Z,8.48
2022-09-06T12:42:14.818Z,8.90
2022-09-06T12:43:18.020Z,10.20
2022-09-06T12:44:27.562Z,10.88
2022-09-06T12:45:29.196Z,6.90
2022-09-06T12:46:32.178Z,7.65
2022-09-06T12:47:35.520Z,8.95
2022-09-06T12:48:38.140Z,9.68
2022-09-06T12:49:39.618Z,6.40
2022-09-06T12:50:41.117Z,8.70
2022-09-06T12:51:43.960Z,9.55
2022-09-06T12:52:47.605Z,10.07
2022-09-06T12:53:50.232Z,12.10
2022-09-06T12:54:51.700Z,10.35
2022-09-06T12:56:03.808Z,8.35
2022-09-06T12:57:13.378Z,9.23
2022-09-06T12:58:14.938Z,7.97
2022-09-06T12:59:18.995Z,6.85
2022-09-06T13:00:22.466Z,9.07
2022-09-06T13:01:30.749Z,17.27
2022-09-06T13:02:37.132Z,9.45
2022-09-06T13:03:42.625Z,8.77
2022-09-06T13:04:47.451Z,6.55
2022-09-06T13:05:49.082Z,6.93
2022-09-06T13:06:52.547Z,8.32
2022-09-06T13:07:55.905Z,7.57
2022-09-06T13:08:58.706Z,9.48
2022-09-06T13:10:00.378Z,7.38
2022-09-06T13:11:04.109Z,5.07
2022-09-06T13:12:09.121Z,9.20
2022-09-06T13:13:11.818Z,10.07
2022-09-06T13:14:18.748Z,9.02
2022-09-06T13:15:23.368Z,7.80
2022-09-06T13:16:27.307Z,10.18
2022-09-06T13:17:30.519Z,7.07
2022-09-06T13:18:34.572Z,8.60
2022-09-06T13:19:37.767Z,8.45
2022-09-06T13:20:39.269Z,9.80
2022-09-06T13:21:42.447Z,9.10
2022-09-06T13:22:46.972Z,11.70
2022-09-06T13:23:49.865Z,10.07
2022-09-06T13:24:56.100Z,9.85
2022-09-06T13:25:57.860Z,7.22
2022-09-06T13:26:59.673Z,10.15
2022-09-06T13:28:01.595Z,6.30
2022-09-06T13:29:11.103Z,9.50
2022-09-06T13:30:31.812Z,9.95
2022-09-06T13:31:33.754Z,10.88
2022-09-06T13:32:36.804Z,10.43
2022-09-06T13:33:38.579Z,9.45
2022-09-06T13:34:49.796Z,10.23
2022-09-06T13:36:59.232Z,12.75
2022-09-06T13:38:29.356Z,9.45
2022-09-06T13:39:35.987Z,12.40
2022-09-06T13:40:59.828Z,15.43
2022-09-06T13:42:05.015Z,10.05
2022-09-06T13:43:11.143Z,7.90
2022-09-06T13:44:27.181Z,7.25
2022-09-06T13:45:31.382Z,6.50
2022-09-06T13:46:34.627Z,11.88
2022-09-06T13:47:36.123Z,9.75
2022-09-06T13:48:37.908Z,7.10
2022-09-06T13:49:39.416Z,8.52
2022-09-06T13:50:41.669Z,8.00
2022-09-06T13:51:43.180Z,7.78
2022-09-06T13:52:44.709Z,7.10
2022-09-06T13:53:47.553Z,9.85
2022-09-06T13:54:49.163Z,10.70
2022-09-06T13:55:50.997Z,8.55
2022-09-06T13:56:53.113Z,7.15
2022-09-06T13:57:54.616Z,10.50
2022-09-06T13:58:56.073Z,7.53
2022-09-06T13:59:57.537Z,8.10
2022-09-06T14:00:59.172Z,10.07
2022-09-06T14:02:03.450Z,7.93
2022-09-06T14:03:04.985Z,11.98
2022-09-06T14:04:07.201Z,8.93
2022-09-06T14:05:09.328Z,8.35
2022-09-06T14:06:10.844Z,8.23
2022-09-06T14:07:12.368Z,11.93
2022-09-06T14:08:13.853Z,8.13
2022-09-06T14:09:16.735Z,7.45
2022-09-06T14:10:18.220Z,6.07
2022-09-06T14:11:19.965Z,8.10
2022-09-06T14:12:21.462Z,7.50
2022-09-06T14:13:22.941Z,4.03
2022-09-06T14:14:24.439Z,8.95
2022-09-06T14:15:26.041Z,10.77
2022-09-06T14:16:27.578Z,6.80
2022-09-06T14:17:29.123Z,8.93
2022-09-06T14:18:31.049Z,9.48
2022-09-06T14:19:32.693Z,7.20
2022-09-06T14:20:34.466Z,8.07
2022-09-06T14:21:36.054Z,8.07
2022-09-06T14:22:37.667Z,7.65
2022-09-06T14:23:39.989Z,10.15
2022-09-06T14:24:42.815Z,9.85
2022-09-06T14:25:44.305Z,11.32
2022-09-06T14:26:45.807Z,10.52
2022-09-06T14:27:47.393Z,8.50
2022-09-06T14:28:49.877Z,11.32
2022-09-06T14:29:51.397Z,7.80
2022-09-06T14:30:53.468Z,7.53
2022-09-06T14:31:54.990Z,11.98
2022-09-06T14:32:56.592Z,8.85
2022-09-06T14:33:58.785Z,10.90
2022-09-06T14:35:00.298Z,8.38
2022-09-06T14:36:05.908Z,9.60
2022-09-06T14:37:10.404Z,6.90
2022-09-06T14:38:15.361Z,9.93
2022-09-06T14:39:16.878Z,7.45
2022-09-06T14:40:19.707Z,13.25
2022-09-06T14:41:21.365Z,7.28
2022-09-06T14:42:23.059Z,11.13
2022-09-06T14:43:24.681Z,10.90
2022-09-06T14:44:26.188Z,8.00
2022-09-06T14:45:27.654Z,10.50
2022-09-06T14:46:29.268Z,10.05
2022-09-06T14:47:30.873Z,9.10
2022-09-06T14:48:33.094Z,5.80
2022-09-06T14:49:34.564Z,10.27
2022-09-06T14:50:36.412Z,7.25
2022-09-06T14:51:38.674Z,9.93
2022-09-06T14:52:40.159Z,12.32
2022-09-06T14:53:44.033Z,10.85
2022-09-06T14:54:45.680Z,9.38
2022-09-06T14:55:48.484Z,11.05